sensor_id;sensor_type;location;lat;lon;timestamp;pressure;altitude;pressure_sealevel;temperature
67758;BMP180;54562;47.620;18.786;2022-09-09T00:01:04;98253.00;;;16.60
67758;BMP180;54562;47.620;18.786;2022-09-09T00:04:24;98244.00;;;16.60
67758;BMP180;54562;47.620;18.786;2022-09-09T00:07:47;98248.60;;;16.60
67758;BMP180;54562;47.620;18.786;2022-09-09T00:10:59;98240.00;;;16.60
67758;BMP180;54562;47.620;18.786;2022-09-09T00:14:23;98230.40;;;16.56
67758;BMP180;54562;47.620;18.786;2022-09-09T00:17:41;98229.40;;;16.50
67758;BMP180;54562;47.620;18.786;2022-09-09T00:21:00;98229.60;;;16.50
67758;BMP180;54562;47.620;18.786;2022-09-09T00:24:23;98235.00;;;16.50
67758;BMP180;54562;47.620;18.786;2022-09-09T00:27:44;98222.60;;;16.50
67758;BMP180;54562;47.620;18.786;2022-09-09T00:30:57;98226.00;;;16.42
67758;BMP180;54562;47.620;18.786;2022-09-09T00:34:19;98233.20;;;16.40
67758;BMP180;54562;47.620;18.786;2022-09-09T00:37:30;98226.60;;;16.40
67758;BMP180;54562;47.620;18.786;2022-09-09T00:40:51;98241.00;;;16.40
67758;BMP180;54562;47.620;18.786;2022-09-09T00:44:19;98243.40;;;16.32
67758;BMP180;54562;47.620;18.786;2022-09-09T00:47:48;98240.00;;;16.30
67758;BMP180;54562;47.620;18.786;2022-09-09T00:51:05;98243.20;;;16.30
67758;BMP180;54562;47.620;18.786;2022-09-09T00:54:38;98242.00;;;16.30
67758;BMP180;54562;47.620;18.786;2022-09-09T00:57:51;98247.00;;;16.30
67758;BMP180;54562;47.620;18.786;2022-09-09T01:01:04;98245.60;;;16.30
67758;BMP180;54562;47.620;18.786;2022-09-09T01:04:22;98247.40;;;16.30
67758;BMP180;54562;47.620;18.786;2022-09-09T01:07:35;98249.20;;;16.24
67758;BMP180;54562;47.620;18.786;2022-09-09T01:10:51;98249.60;;;16.20
67758;BMP180;54562;47.620;18.786;2022-09-09T01:14:09;98254.80;;;16.20
67758;BMP180;54562;47.620;18.786;2022-09-09T01:17:22;98262.20;;;16.14
67758;BMP180;54562;47.620;18.786;2022-09-09T01:20:39;98258.40;;;16.10
67758;BMP180;54562;47.620;18.786;2022-09-09T01:24:18;98252.80;;;16.10
67758;BMP180;54562;47.620;18.786;2022-09-09T01:27:27;98256.40;;;16.10
67758;BMP180;54562;47.620;18.786;2022-09-09T01:30:37;98257.80;;;16.06
67758;BMP180;54562;47.620;18.786;2022-09-09T01:33:46;98277.20;;;16.00
67758;BMP180;54562;47.620;18.786;2022-09-09T01:37:00;98286.60;;;16.00
67758;BMP180;54562;47.620;18.786;2022-09-09T01:40:11;98282.20;;;16.00
67758;BMP180;54562;47.620;18.786;2022-09-09T01:43:23;98295.20;;;16.00
67758;BMP180;54562;47.620;18.786;2022-09-09T01:46:32;98287.40;;;16.00
67758;BMP180;54562;47.620;18.786;2022-09-09T01:49:40;98285.40;;;15.96
67758;BMP180;54562;47.620;18.786;2022-09-09T01:52:52;98276.80;;;15.90
67758;BMP180;54562;47.620;18.786;2022-09-09T01:56:14;98271.40;;;15.90
67758;BMP180;54562;47.620;18.786;2022-09-09T01:59:45;98275.20;;;15.90
67758;BMP180;54562;47.620;18.786;2022-09-09T02:03:08;98276.60;;;15.90
67758;BMP180;54562;47.620;18.786;2022-09-09T02:06:30;98278.60;;;15.90
67758;BMP180;54562;47.620;18.786;2022-09-09T02:09:42;98275.60;;;15.88
67758;BMP180;54562;47.620;18.786;2022-09-09T02:12:59;98282.80;;;15.90
67758;BMP180;54562;47.620;18.786;2022-09-09T02:16:15;98289.80;;;15.90
67758;BMP180;54562;47.620;18.786;2022-09-09T02:19:31;98293.40;;;15.90
67758;BMP180;54562;47.620;18.786;2022-09-09T02:22:43;98297.00;;;15.86
67758;BMP180;54562;47.620;18.786;2022-09-09T02:25:55;98294.80;;;15.80
67758;BMP180;54562;47.620;18.786;2022-09-09T02:29:11;98302.60;;;15.80
67758;BMP180;54562;47.620;18.786;2022-09-09T02:32:25;98303.20;;;15.80
67758;BMP180;54562;47.620;18.786;2022-09-09T02:35:38;98297.20;;;15.80
67758;BMP180;54562;47.620;18.786;2022-09-09T02:38:49;98294.60;;;15.80
67758;BMP180;54562;47.620;18.786;2022-09-09T02:42:00;98299.00;;;15.80
67758;BMP180;54562;47.620;18.786;2022-09-09T02:45:14;98296.20;;;15.80
67758;BMP180;54562;47.620;18.786;2022-09-09T02:48:32;98297.60;;;15.80
67758;BMP180;54562;47.620;18.786;2022-09-09T02:51:53;98295.80;;;15.74
67758;BMP180;54562;47.620;18.786;2022-09-09T02:55:14;98295.00;;;15.70
67758;BMP180;54562;47.620;18.786;2022-09-09T02:58:26;98296.80;;;15.70
67758;BMP180;54562;47.620;18.786;2022-09-09T03:01:35;98304.00;;;15.70
67758;BMP180;54562;47.620;18.786;2022-09-09T03:04:44;98299.00;;;15.70
67758;BMP180;54562;47.620;18.786;2022-09-09T03:07:57;98296.00;;;15.70
67758;BMP180;54562;47.620;18.786;2022-09-09T03:11:06;98295.60;;;15.70
67758;BMP180;54562;47.620;18.786;2022-09-09T03:14:17;98297.00;;;15.70
67758;BMP180;54562;47.620;18.786;2022-09-09T03:17:31;98306.20;;;15.70
67758;BMP180;54562;47.620;18.786;2022-09-09T03:20:39;98304.60;;;15.60
67758;BMP180;54562;47.620;18.786;2022-09-09T03:23:50;98303.40;;;15.60
67758;BMP180;54562;47.620;18.786;2022-09-09T03:26:59;98302.40;;;15.50
67758;BMP180;54562;47.620;18.786;2022-09-09T03:30:09;98298.40;;;15.50
67758;BMP180;54562;47.620;18.786;2022-09-09T03:33:21;98295.40;;;15.50
67758;BMP180;54562;47.620;18.786;2022-09-09T03:36:30;98305.00;;;15.50
67758;BMP180;54562;47.620;18.786;2022-09-09T03:39:39;98304.60;;;15.48
67758;BMP180;54562;47.620;18.786;2022-09-09T03:42:47;98304.00;;;15.42
67758;BMP180;54562;47.620;18.786;2022-09-09T03:45:56;98305.20;;;15.40
67758;BMP180;54562;47.620;18.786;2022-09-09T03:49:05;98302.40;;;15.40
67758;BMP180;54562;47.620;18.786;2022-09-09T03:52:14;98300.40;;;15.40
67758;BMP180;54562;47.620;18.786;2022-09-09T03:55:29;98303.40;;;15.42
67758;BMP180;54562;47.620;18.786;2022-09-09T03:58:38;98302.20;;;15.40
67758;BMP180;54562;47.620;18.786;2022-09-09T04:01:46;98311.80;;;15.42
67758;BMP180;54562;47.620;18.786;2022-09-09T04:04:55;98305.40;;;15.40
67758;BMP180;54562;47.620;18.786;2022-09-09T04:08:03;98310.60;;;15.48
67758;BMP180;54562;47.620;18.786;2022-09-09T04:11:12;98313.00;;;15.50
67758;BMP180;54562;47.620;18.786;2022-09-09T04:14:21;98317.40;;;15.50
67758;BMP180;54562;47.620;18.786;2022-09-09T04:17:30;98322.20;;;15.50
67758;BMP180;54562;47.620;18.786;2022-09-09T04:20:39;98322.60;;;15.50
67758;BMP180;54562;47.620;18.786;2022-09-09T04:23:47;98319.20;;;15.50
67758;BMP180;54562;47.620;18.786;2022-09-09T04:26:55;98320.40;;;15.50
67758;BMP180;54562;47.620;18.786;2022-09-09T04:30:04;98318.00;;;15.50
67758;BMP180;54562;47.620;18.786;2022-09-09T04:33:14;98314.20;;;15.40
67758;BMP180;54562;47.620;18.786;2022-09-09T04:36:24;98318.40;;;15.40
67758;BMP180;54562;47.620;18.786;2022-09-09T04:39:32;98313.60;;;15.40
67758;BMP180;54562;47.620;18.786;2022-09-09T04:42:41;98314.20;;;15.40
67758;BMP180;54562;47.620;18.786;2022-09-09T04:45:52;98318.80;;;15.40
67758;BMP180;54562;47.620;18.786;2022-09-09T04:49:01;98316.40;;;15.40
67758;BMP180;54562;47.620;18.786;2022-09-09T04:52:09;98319.40;;;15.40
67758;BMP180;54562;47.620;18.786;2022-09-09T04:55:18;98314.80;;;15.40
67758;BMP180;54562;47.620;18.786;2022-09-09T04:58:27;98315.20;;;15.40
67758;BMP180;54562;47.620;18.786;2022-09-09T05:01:35;98319.60;;;15.44
67758;BMP180;54562;47.620;18.786;2022-09-09T05:04:44;98321.20;;;15.50
67758;BMP180;54562;47.620;18.786;2022-09-09T05:07:52;98325.00;;;15.50
67758;BMP180;54562;47.620;18.786;2022-09-09T05:11:00;98324.80;;;15.50
67758;BMP180;54562;47.620;18.786;2022-09-09T05:14:09;98328.80;;;15.50
67758;BMP180;54562;47.620;18.786;2022-09-09T05:17:19;98329.20;;;15.50
67758;BMP180;54562;47.620;18.786;2022-09-09T05:20:28;98334.20;;;15.60
67758;BMP180;54562;47.620;18.786;2022-09-09T05:23:37;98331.80;;;15.60
67758;BMP180;54562;47.620;18.786;2022-09-09T05:26:46;98322.00;;;15.60
67758;BMP180;54562;47.620;18.786;2022-09-09T05:29:55;98315.60;;;15.60
67758;BMP180;54562;47.620;18.786;2022-09-09T05:33:04;98306.60;;;15.60
67758;BMP180;54562;47.620;18.786;2022-09-09T05:36:15;98307.40;;;15.60
67758;BMP180;54562;47.620;18.786;2022-09-09T05:39:24;98312.80;;;15.60
67758;BMP180;54562;47.620;18.786;2022-09-09T05:42:34;98317.40;;;15.60
67758;BMP180;54562;47.620;18.786;2022-09-09T05:45:42;98309.00;;;15.60
67758;BMP180;54562;47.620;18.786;2022-09-09T05:48:53;98305.80;;;15.70
67758;BMP180;54562;47.620;18.786;2022-09-09T05:52:01;98309.40;;;15.70
67758;BMP180;54562;47.620;18.786;2022-09-09T05:55:13;98317.20;;;15.70
67758;BMP180;54562;47.620;18.786;2022-09-09T05:58:22;98310.80;;;15.70
67758;BMP180;54562;47.620;18.786;2022-09-09T06:01:35;98310.20;;;15.70
67758;BMP180;54562;47.620;18.786;2022-09-09T06:04:47;98309.00;;;15.70
67758;BMP180;54562;47.620;18.786;2022-09-09T06:07:56;98310.20;;;15.70
67758;BMP180;54562;47.620;18.786;2022-09-09T06:11:10;98307.20;;;15.70
67758;BMP180;54562;47.620;18.786;2022-09-09T06:14:22;98312.40;;;15.76
67758;BMP180;54562;47.620;18.786;2022-09-09T06:17:31;98308.80;;;15.80
67758;BMP180;54562;47.620;18.786;2022-09-09T06:20:39;98305.80;;;15.80
67758;BMP180;54562;47.620;18.786;2022-09-09T06:23:49;98308.00;;;15.80
67758;BMP180;54562;47.620;18.786;2022-09-09T06:26:58;98313.60;;;15.78
67758;BMP180;54562;47.620;18.786;2022-09-09T06:30:10;98321.60;;;15.80
67758;BMP180;54562;47.620;18.786;2022-09-09T06:33:18;98324.20;;;15.82
67758;BMP180;54562;47.620;18.786;2022-09-09T06:36:28;98315.00;;;15.90
67758;BMP180;54562;47.620;18.786;2022-09-09T06:39:37;98315.80;;;15.92
67758;BMP180;54562;47.620;18.786;2022-09-09T06:42:45;98319.80;;;16.00
67758;BMP180;54562;47.620;18.786;2022-09-09T06:46:00;98323.20;;;16.00
67758;BMP180;54562;47.620;18.786;2022-09-09T06:49:11;98326.80;;;16.00
67758;BMP180;54562;47.620;18.786;2022-09-09T06:52:24;98326.20;;;16.02
67758;BMP180;54562;47.620;18.786;2022-09-09T06:55:34;98329.60;;;16.08
67758;BMP180;54562;47.620;18.786;2022-09-09T06:58:44;98330.80;;;16.10
67758;BMP180;54562;47.620;18.786;2022-09-09T07:01:52;98334.80;;;16.20
67758;BMP180;54562;47.620;18.786;2022-09-09T07:05:00;98334.00;;;16.30
67758;BMP180;54562;47.620;18.786;2022-09-09T07:08:08;98333.40;;;16.40
67758;BMP180;54562;47.620;18.786;2022-09-09T07:11:16;98336.40;;;16.50
67758;BMP180;54562;47.620;18.786;2022-09-09T07:14:24;98334.40;;;16.60
67758;BMP180;54562;47.620;18.786;2022-09-09T07:17:33;98342.60;;;16.70
67758;BMP180;54562;47.620;18.786;2022-09-09T07:20:41;98345.40;;;16.80
67758;BMP180;54562;47.620;18.786;2022-09-09T07:23:49;98354.40;;;16.90
67758;BMP180;54562;47.620;18.786;2022-09-09T07:26:57;98354.80;;;17.00
67758;BMP180;54562;47.620;18.786;2022-09-09T07:30:09;98351.80;;;17.30
67758;BMP180;54562;47.620;18.786;2022-09-09T07:33:26;98346.20;;;17.56
67758;BMP180;54562;47.620;18.786;2022-09-09T07:36:36;98350.80;;;17.80
67758;BMP180;54562;47.620;18.786;2022-09-09T07:39:44;98351.60;;;18.10
67758;BMP180;54562;47.620;18.786;2022-09-09T07:42:52;98348.20;;;18.20
67758;BMP180;54562;47.620;18.786;2022-09-09T07:46:02;98353.60;;;18.40
67758;BMP180;54562;47.620;18.786;2022-09-09T07:49:11;98354.60;;;18.56
67758;BMP180;54562;47.620;18.786;2022-09-09T07:52:20;98352.60;;;18.70
67758;BMP180;54562;47.620;18.786;2022-09-09T07:55:31;98351.00;;;18.88
67758;BMP180;54562;47.620;18.786;2022-09-09T07:58:40;98351.60;;;19.00
67758;BMP180;54562;47.620;18.786;2022-09-09T08:01:50;98358.20;;;19.10
67758;BMP180;54562;47.620;18.786;2022-09-09T08:05:00;98361.00;;;19.24
67758;BMP180;54562;47.620;18.786;2022-09-09T08:08:09;98361.00;;;19.38
67758;BMP180;54562;47.620;18.786;2022-09-09T08:11:18;98361.60;;;19.42
67758;BMP180;54562;47.620;18.786;2022-09-09T08:14:27;98360.20;;;19.60
67758;BMP180;54562;47.620;18.786;2022-09-09T08:17:35;98363.40;;;19.70
67758;BMP180;54562;47.620;18.786;2022-09-09T08:20:44;98353.00;;;19.80
67758;BMP180;54562;47.620;18.786;2022-09-09T08:23:54;98352.40;;;20.00
67758;BMP180;54562;47.620;18.786;2022-09-09T08:27:03;98349.20;;;20.10
67758;BMP180;54562;47.620;18.786;2022-09-09T08:30:14;98351.60;;;20.30
67758;BMP180;54562;47.620;18.786;2022-09-09T08:33:21;98349.40;;;20.40
67758;BMP180;54562;47.620;18.786;2022-09-09T08:36:31;98347.20;;;20.56
67758;BMP180;54562;47.620;18.786;2022-09-09T08:39:40;98345.80;;;20.70
67758;BMP180;54562;47.620;18.786;2022-09-09T08:42:54;98351.00;;;20.80
67758;BMP180;54562;47.620;18.786;2022-09-09T08:46:09;98355.00;;;20.90
67758;BMP180;54562;47.620;18.786;2022-09-09T08:49:44;98351.60;;;21.10
67758;BMP180;54562;47.620;18.786;2022-09-09T08:53:03;98359.00;;;21.20
67758;BMP180;54562;47.620;18.786;2022-09-09T08:56:16;98364.20;;;21.30
67758;BMP180;54562;47.620;18.786;2022-09-09T08:59:26;98370.60;;;21.40
67758;BMP180;54562;47.620;18.786;2022-09-09T09:02:42;98355.40;;;21.50
67758;BMP180;54562;47.620;18.786;2022-09-09T09:06:06;98352.80;;;21.60
67758;BMP180;54562;47.620;18.786;2022-09-09T09:09:26;98356.00;;;21.70
67758;BMP180;54562;47.620;18.786;2022-09-09T09:12:42;98352.80;;;21.88
67758;BMP180;54562;47.620;18.786;2022-09-09T09:15:55;98354.00;;;22.00
67758;BMP180;54562;47.620;18.786;2022-09-09T09:19:07;98353.20;;;22.10
67758;BMP180;54562;47.620;18.786;2022-09-09T09:22:22;98355.20;;;22.20
67758;BMP180;54562;47.620;18.786;2022-09-09T09:25:39;98349.40;;;22.40
67758;BMP180;54562;47.620;18.786;2022-09-09T09:28:49;98352.40;;;22.52
67758;BMP180;54562;47.620;18.786;2022-09-09T09:32:02;98343.60;;;22.70
67758;BMP180;54562;47.620;18.786;2022-09-09T09:35:15;98339.20;;;22.80
67758;BMP180;54562;47.620;18.786;2022-09-09T09:38:26;98334.80;;;22.90
67758;BMP180;54562;47.620;18.786;2022-09-09T09:41:55;98334.20;;;23.00
67758;BMP180;54562;47.620;18.786;2022-09-09T09:45:14;98328.20;;;23.20
67758;BMP180;54562;47.620;18.786;2022-09-09T09:48:26;98327.80;;;23.28
67758;BMP180;54562;47.620;18.786;2022-09-09T09:51:36;98337.00;;;23.40
67758;BMP180;54562;47.620;18.786;2022-09-09T09:54:43;98346.00;;;23.50
67758;BMP180;54562;47.620;18.786;2022-09-09T09:57:51;98347.80;;;23.50
67758;BMP180;54562;47.620;18.786;2022-09-09T10:00:59;98349.80;;;23.60
67758;BMP180;54562;47.620;18.786;2022-09-09T10:04:20;98343.80;;;23.70
67758;BMP180;54562;47.620;18.786;2022-09-09T10:07:30;98336.00;;;23.90
67758;BMP180;54562;47.620;18.786;2022-09-09T10:11:02;98334.40;;;23.90
67758;BMP180;54562;47.620;18.786;2022-09-09T10:14:21;98338.40;;;23.90
67758;BMP180;54562;47.620;18.786;2022-09-09T10:17:36;98333.60;;;24.00
67758;BMP180;54562;47.620;18.786;2022-09-09T10:21:03;98333.60;;;23.90
67758;BMP180;54562;47.620;18.786;2022-09-09T10:24:50;98333.00;;;23.96
67758;BMP180;54562;47.620;18.786;2022-09-09T10:28:33;98336.00;;;24.28
67758;BMP180;54562;47.620;18.786;2022-09-09T10:31:55;98338.60;;;24.20
67758;BMP180;54562;47.620;18.786;2022-09-09T10:35:17;98345.80;;;24.22
67758;BMP180;54562;47.620;18.786;2022-09-09T10:38:37;98354.40;;;24.20
67758;BMP180;54562;47.620;18.786;2022-09-09T10:41:58;98349.00;;;24.10
67758;BMP180;54562;47.620;18.786;2022-09-09T10:45:23;98346.20;;;24.02
67758;BMP180;54562;47.620;18.786;2022-09-09T10:49:01;98342.60;;;24.00
67758;BMP180;54562;47.620;18.786;2022-09-09T10:52:21;98344.40;;;23.90
67758;BMP180;54562;47.620;18.786;2022-09-09T10:55:39;98346.80;;;23.82
67758;BMP180;54562;47.620;18.786;2022-09-09T10:58:55;98343.20;;;23.80
67758;BMP180;54562;47.620;18.786;2022-09-09T11:02:15;98349.20;;;23.70
67758;BMP180;54562;47.620;18.786;2022-09-09T11:05:34;98344.40;;;23.60
67758;BMP180;54562;47.620;18.786;2022-09-09T11:08:44;98337.80;;;23.60
67758;BMP180;54562;47.620;18.786;2022-09-09T11:11:56;98336.80;;;23.50
67758;BMP180;54562;47.620;18.786;2022-09-09T11:15:17;98336.80;;;23.50
67758;BMP180;54562;47.620;18.786;2022-09-09T11:18:35;98336.20;;;23.50
67758;BMP180;54562;47.620;18.786;2022-09-09T11:21:49;98336.20;;;23.50
67758;BMP180;54562;47.620;18.786;2022-09-09T11:25:03;98338.80;;;23.50
67758;BMP180;54562;47.620;18.786;2022-09-09T11:28:46;98335.20;;;23.48
67758;BMP180;54562;47.620;18.786;2022-09-09T11:32:13;98332.00;;;23.50
67758;BMP180;54562;47.620;18.786;2022-09-09T11:35:50;98326.00;;;23.40
67758;BMP180;54562;47.620;18.786;2022-09-09T11:39:17;98325.60;;;23.40
67758;BMP180;54562;47.620;18.786;2022-09-09T11:42:29;98323.60;;;23.60
67758;BMP180;54562;47.620;18.786;2022-09-09T11:45:38;98311.00;;;23.80
67758;BMP180;54562;47.620;18.786;2022-09-09T11:49:00;98306.40;;;24.44
67758;BMP180;54562;47.620;18.786;2022-09-09T11:52:23;98308.20;;;24.90
67758;BMP180;54562;47.620;18.786;2022-09-09T11:55:35;98313.00;;;25.10
67758;BMP180;54562;47.620;18.786;2022-09-09T11:58:56;98309.20;;;25.30
67758;BMP180;54562;47.620;18.786;2022-09-09T12:02:14;98307.40;;;25.70
67758;BMP180;54562;47.620;18.786;2022-09-09T12:05:37;98296.20;;;26.20
67758;BMP180;54562;47.620;18.786;2022-09-09T12:08:53;98289.60;;;26.50
67758;BMP180;54562;47.620;18.786;2022-09-09T12:12:26;98302.20;;;26.50
67758;BMP180;54562;47.620;18.786;2022-09-09T12:15:35;98305.20;;;26.24
67758;BMP180;54562;47.620;18.786;2022-09-09T12:19:05;98302.40;;;26.44
67758;BMP180;54562;47.620;18.786;2022-09-09T12:22:30;98304.40;;;26.58
67758;BMP180;54562;47.620;18.786;2022-09-09T12:25:58;98297.60;;;26.70
67758;BMP180;54562;47.620;18.786;2022-09-09T12:29:27;98288.60;;;26.78
67758;BMP180;54562;47.620;18.786;2022-09-09T12:32:39;98285.00;;;27.10
67758;BMP180;54562;47.620;18.786;2022-09-09T12:35:54;98286.20;;;27.20
67758;BMP180;54562;47.620;18.786;2022-09-09T12:39:21;98279.80;;;27.20
67758;BMP180;54562;47.620;18.786;2022-09-09T12:42:30;98282.20;;;26.90
67758;BMP180;54562;47.620;18.786;2022-09-09T12:45:47;98283.20;;;26.80
67758;BMP180;54562;47.620;18.786;2022-09-09T12:48:57;98268.60;;;26.60
67758;BMP180;54562;47.620;18.786;2022-09-09T12:52:17;98265.40;;;26.68
67758;BMP180;54562;47.620;18.786;2022-09-09T12:55:30;98267.00;;;26.50
67758;BMP180;54562;47.620;18.786;2022-09-09T12:58:47;98262.60;;;26.20
67758;BMP180;54562;47.620;18.786;2022-09-09T13:02:02;98255.40;;;26.20
67758;BMP180;54562;47.620;18.786;2022-09-09T13:05:24;98252.80;;;26.40
67758;BMP180;54562;47.620;18.786;2022-09-09T13:08:33;98245.60;;;26.50
67758;BMP180;54562;47.620;18.786;2022-09-09T13:11:46;98246.60;;;26.74
67758;BMP180;54562;47.620;18.786;2022-09-09T13:14:57;98243.00;;;26.90
67758;BMP180;54562;47.620;18.786;2022-09-09T13:18:16;98242.00;;;26.94
67758;BMP180;54562;47.620;18.786;2022-09-09T13:21:37;98241.20;;;26.80
67758;BMP180;54562;47.620;18.786;2022-09-09T13:24:46;98227.60;;;26.40
67758;BMP180;54562;47.620;18.786;2022-09-09T13:28:04;98226.40;;;26.20
67758;BMP180;54562;47.620;18.786;2022-09-09T13:31:27;98232.80;;;26.08
67758;BMP180;54562;47.620;18.786;2022-09-09T13:34:37;98232.40;;;25.98
67758;BMP180;54562;47.620;18.786;2022-09-09T13:37:45;98235.20;;;25.80
67758;BMP180;54562;47.620;18.786;2022-09-09T13:40:59;98235.60;;;25.70
67758;BMP180;54562;47.620;18.786;2022-09-09T13:44:19;98235.40;;;25.60
67758;BMP180;54562;47.620;18.786;2022-09-09T13:47:35;98232.40;;;25.60
67758;BMP180;54562;47.620;18.786;2022-09-09T13:50:43;98222.20;;;25.70
67758;BMP180;54562;47.620;18.786;2022-09-09T13:54:01;98215.80;;;25.68
67758;BMP180;54562;47.620;18.786;2022-09-09T13:57:18;98214.40;;;25.50
67758;BMP180;54562;47.620;18.786;2022-09-09T14:00:28;98214.40;;;25.60
67758;BMP180;54562;47.620;18.786;2022-09-09T14:03:36;98215.00;;;26.00
67758;BMP180;54562;47.620;18.786;2022-09-09T14:06:45;98208.80;;;26.34
67758;BMP180;54562;47.620;18.786;2022-09-09T14:09:53;98207.80;;;26.50
67758;BMP180;54562;47.620;18.786;2022-09-09T14:13:01;98206.40;;;26.40
67758;BMP180;54562;47.620;18.786;2022-09-09T14:16:09;98189.80;;;26.20
67758;BMP180;54562;47.620;18.786;2022-09-09T14:19:17;98175.40;;;26.00
67758;BMP180;54562;47.620;18.786;2022-09-09T14:22:26;98172.40;;;25.80
67758;BMP180;54562;47.620;18.786;2022-09-09T14:25:35;98175.40;;;25.70
67758;BMP180;54562;47.620;18.786;2022-09-09T14:28:43;98183.00;;;25.60
67758;BMP180;54562;47.620;18.786;2022-09-09T14:32:08;98190.40;;;25.40
67758;BMP180;54562;47.620;18.786;2022-09-09T14:35:19;98190.60;;;25.20
67758;BMP180;54562;47.620;18.786;2022-09-09T14:38:29;98173.80;;;25.10
67758;BMP180;54562;47.620;18.786;2022-09-09T14:41:38;98172.80;;;25.10
67758;BMP180;54562;47.620;18.786;2022-09-09T14:44:46;98177.60;;;25.08
67758;BMP180;54562;47.620;18.786;2022-09-09T14:47:55;98175.20;;;25.00
67758;BMP180;54562;47.620;18.786;2022-09-09T14:51:10;98173.00;;;24.90
67758;BMP180;54562;47.620;18.786;2022-09-09T14:54:19;98169.60;;;24.80
67758;BMP180;54562;47.620;18.786;2022-09-09T14:57:27;98175.40;;;24.80
67758;BMP180;54562;47.620;18.786;2022-09-09T15:00:36;98177.80;;;24.90
67758;BMP180;54562;47.620;18.786;2022-09-09T15:03:53;98181.60;;;24.82
67758;BMP180;54562;47.620;18.786;2022-09-09T15:07:01;98189.80;;;24.80
67758;BMP180;54562;47.620;18.786;2022-09-09T15:10:11;98189.60;;;24.80
67758;BMP180;54562;47.620;18.786;2022-09-09T15:13:19;98187.00;;;24.70
67758;BMP180;54562;47.620;18.786;2022-09-09T15:16:29;98193.00;;;24.70
67758;BMP180;54562;47.620;18.786;2022-09-09T15:19:38;98191.60;;;24.60
67758;BMP180;54562;47.620;18.786;2022-09-09T15:22:48;98192.60;;;24.52
67758;BMP180;54562;47.620;18.786;2022-09-09T15:25:58;98191.80;;;24.50
67758;BMP180;54562;47.620;18.786;2022-09-09T15:29:06;98186.60;;;24.40
67758;BMP180;54562;47.620;18.786;2022-09-09T15:32:16;98186.40;;;24.40
67758;BMP180;54562;47.620;18.786;2022-09-09T15:35:24;98185.80;;;24.30
67758;BMP180;54562;47.620;18.786;2022-09-09T15:38:34;98184.60;;;24.20
67758;BMP180;54562;47.620;18.786;2022-09-09T15:41:43;98184.20;;;24.10
67758;BMP180;54562;47.620;18.786;2022-09-09T15:44:51;98191.00;;;24.00
67758;BMP180;54562;47.620;18.786;2022-09-09T15:47:59;98189.20;;;23.90
67758;BMP180;54562;47.620;18.786;2022-09-09T15:51:08;98189.00;;;23.80
67758;BMP180;54562;47.620;18.786;2022-09-09T15:54:40;98188.60;;;23.70
67758;BMP180;54562;47.620;18.786;2022-09-09T15:57:50;98189.60;;;23.60
67758;BMP180;54562;47.620;18.786;2022-09-09T16:01:05;98189.40;;;23.50
67758;BMP180;54562;47.620;18.786;2022-09-09T16:04:14;98196.20;;;23.40
67758;BMP180;54562;47.620;18.786;2022-09-09T16:07:29;98200.40;;;23.30
67758;BMP180;54562;47.620;18.786;2022-09-09T16:10:37;98203.60;;;23.20
67758;BMP180;54562;47.620;18.786;2022-09-09T16:13:48;98206.40;;;23.10
67758;BMP180;54562;47.620;18.786;2022-09-09T16:16:56;98204.60;;;23.10
67758;BMP180;54562;47.620;18.786;2022-09-09T16:20:05;98210.00;;;23.02
67758;BMP180;54562;47.620;18.786;2022-09-09T16:23:15;98213.60;;;23.00
67758;BMP180;54562;47.620;18.786;2022-09-09T16:26:24;98213.40;;;22.90
67758;BMP180;54562;47.620;18.786;2022-09-09T16:29:32;98213.60;;;22.90
67758;BMP180;54562;47.620;18.786;2022-09-09T16:32:40;98206.80;;;22.80
67758;BMP180;54562;47.620;18.786;2022-09-09T16:35:48;98212.80;;;22.70
67758;BMP180;54562;47.620;18.786;2022-09-09T16:39:01;98205.20;;;22.70
67758;BMP180;54562;47.620;18.786;2022-09-09T16:42:12;98205.20;;;22.60
67758;BMP180;54562;47.620;18.786;2022-09-09T16:45:22;98202.20;;;22.54
67758;BMP180;54562;47.620;18.786;2022-09-09T16:48:34;98212.80;;;22.50
67758;BMP180;54562;47.620;18.786;2022-09-09T16:51:44;98210.80;;;22.40
67758;BMP180;54562;47.620;18.786;2022-09-09T16:54:53;98212.60;;;22.30
67758;BMP180;54562;47.620;18.786;2022-09-09T16:58:01;98212.20;;;22.20
67758;BMP180;54562;47.620;18.786;2022-09-09T17:01:11;98214.40;;;22.20
67758;BMP180;54562;47.620;18.786;2022-09-09T17:04:24;98216.00;;;22.10
67758;BMP180;54562;47.620;18.786;2022-09-09T17:07:35;98216.40;;;22.00
67758;BMP180;54562;47.620;18.786;2022-09-09T17:10:46;98222.80;;;21.90
67758;BMP180;54562;47.620;18.786;2022-09-09T17:13:57;98224.60;;;21.90
67758;BMP180;54562;47.620;18.786;2022-09-09T17:17:07;98229.00;;;21.78
67758;BMP180;54562;47.620;18.786;2022-09-09T17:20:38;98234.40;;;21.70
67758;BMP180;54562;47.620;18.786;2022-09-09T17:23:53;98228.00;;;21.60
67758;BMP180;54562;47.620;18.786;2022-09-09T17:27:01;98230.80;;;21.50
67758;BMP180;54562;47.620;18.786;2022-09-09T17:30:12;98229.20;;;21.50
67758;BMP180;54562;47.620;18.786;2022-09-09T17:33:21;98225.20;;;21.40
67758;BMP180;54562;47.620;18.786;2022-09-09T17:36:33;98220.60;;;21.30
67758;BMP180;54562;47.620;18.786;2022-09-09T17:39:43;98218.20;;;21.20
67758;BMP180;54562;47.620;18.786;2022-09-09T17:42:51;98221.20;;;21.20
67758;BMP180;54562;47.620;18.786;2022-09-09T17:46:09;98230.00;;;21.10
67758;BMP180;54562;47.620;18.786;2022-09-09T17:49:19;98235.40;;;21.10
67758;BMP180;54562;47.620;18.786;2022-09-09T17:52:27;98242.60;;;21.00
67758;BMP180;54562;47.620;18.786;2022-09-09T17:55:37;98244.00;;;20.98
67758;BMP180;54562;47.620;18.786;2022-09-09T17:58:46;98243.40;;;20.90
67758;BMP180;54562;47.620;18.786;2022-09-09T18:01:54;98239.40;;;20.90
67758;BMP180;54562;47.620;18.786;2022-09-09T18:05:03;98238.80;;;20.80
67758;BMP180;54562;47.620;18.786;2022-09-09T18:08:12;98233.60;;;20.80
67758;BMP180;54562;47.620;18.786;2022-09-09T18:11:23;98232.20;;;20.80
67758;BMP180;54562;47.620;18.786;2022-09-09T18:14:34;98236.40;;;20.70
67758;BMP180;54562;47.620;18.786;2022-09-09T18:17:42;98239.60;;;20.70